Current Weather

Boulder City Muni

Boulder City, Nevada (KBVU)

Report from: Thursday, July 18, 2024 2:15 PM UTC
Current time: Thursday, July 18, 2024 2:34 PM UTC

Nearby weather – Weather history – Daily summaries
Weather forecast

Temperature33.0°C (91.4°F)
Heat index31.7°C (89.1°F)
Dew point12.0°C (53.6°F)
Winds Calm
Visibility10 mi. (16.1 km)
Clouds Sky clear
Altimeter29.96 in.Hg (1015 mB)
Relative humidity28 %
Density altitude2,205 ft. (672 m)
Remarks Fully automated report
Automated weather observing station with precipitation discriminator
Flight conditions Visual Meteorological Conditions
Raw dataKBVU 181415Z AUTO 00000KT 10SM CLR 33/12 A2996 RMK AO2
An error has occurred. This application may no longer respond until reloaded. Reload 🗙